createdAt,value
2017-09-30T00:01:54.650Z,20.83
2017-09-30T00:04:22.104Z,18.43
2017-09-30T00:06:49.589Z,20.73
2017-09-30T00:09:17.028Z,20.10
2017-09-30T00:11:44.484Z,20.00
2017-09-30T00:14:11.970Z,17.90
2017-09-30T00:16:39.430Z,19.30
2017-09-30T00:19:06.881Z,17.50
2017-09-30T00:21:34.377Z,20.63
2017-09-30T00:24:01.829Z,20.27
2017-09-30T00:26:29.271Z,20.10
2017-09-30T00:28:59.180Z,18.73
2017-09-30T00:31:26.625Z,18.10
2017-09-30T00:33:54.176Z,20.63
2017-09-30T00:36:22.990Z,20.40
2017-09-30T00:38:52.518Z,19.60
2017-09-30T00:41:20.256Z,22.33
2017-09-30T00:43:49.170Z,22.17
2017-09-30T00:46:16.777Z,21.00
2017-09-30T00:48:44.335Z,20.57
2017-09-30T00:51:12.488Z,19.77
2017-09-30T00:53:40.023Z,21.53
2017-09-30T00:56:07.561Z,22.30
2017-09-30T00:58:36.549Z,23.17
2017-09-30T01:01:04.245Z,20.43
2017-09-30T01:03:32.603Z,23.67
2017-09-30T01:06:02.148Z,22.10
2017-09-30T01:08:30.088Z,22.50
2017-09-30T01:10:58.709Z,22.00
2017-09-30T01:13:27.640Z,21.40
2017-09-30T01:15:55.483Z,21.90
2017-09-30T01:18:23.374Z,21.40
2017-09-30T01:20:54.012Z,23.10
2017-09-30T01:23:21.565Z,22.30
2017-09-30T01:25:49.101Z,24.50
2017-09-30T01:28:17.345Z,24.03
2017-09-30T01:30:45.073Z,21.23
2017-09-30T01:33:12.604Z,22.63
2017-09-30T01:35:40.802Z,23.00
2017-09-30T01:38:08.723Z,21.30
2017-09-30T01:40:36.955Z,24.10
2017-09-30T01:43:05.427Z,24.67
2017-09-30T01:45:33.806Z,23.00
2017-09-30T01:48:01.400Z,25.53
2017-09-30T01:50:29.628Z,23.63
2017-09-30T01:52:57.300Z,26.27
2017-09-30T01:55:25.465Z,23.40
2017-09-30T01:57:53.446Z,23.40
2017-09-30T02:00:21.514Z,22.60
2017-09-30T02:02:50.663Z,24.80
2017-09-30T02:05:19.292Z,23.60
2017-09-30T02:07:47.601Z,24.40
2017-09-30T02:10:15.889Z,25.40
2017-09-30T02:12:45.251Z,22.47
2017-09-30T02:15:12.807Z,24.30
2017-09-30T02:17:41.348Z,24.60
2017-09-30T02:20:10.388Z,22.63
2017-09-30T02:22:38.060Z,25.03
2017-09-30T02:25:06.275Z,24.70
2017-09-30T02:27:34.631Z,25.43
2017-09-30T02:30:04.544Z,24.00
2017-09-30T02:32:34.499Z,24.93
2017-09-30T02:35:03.777Z,26.33
2017-09-30T02:37:32.221Z,25.70
2017-09-30T02:40:01.383Z,26.07
2017-09-30T02:42:28.873Z,25.47
2017-09-30T02:44:56.856Z,24.50
2017-09-30T02:47:24.912Z,25.30
2017-09-30T02:49:52.854Z,27.10
2017-09-30T02:52:20.696Z,23.53
2017-09-30T02:54:49.047Z,26.70
2017-09-30T02:57:17.788Z,24.83
2017-09-30T02:59:45.236Z,24.63
2017-09-30T03:02:12.713Z,27.70
2017-09-30T03:04:40.165Z,26.20
2017-09-30T03:07:07.613Z,26.80
2017-09-30T03:09:35.085Z,27.70
2017-09-30T03:12:02.551Z,25.50
2017-09-30T03:14:29.993Z,25.97
2017-09-30T03:16:57.481Z,27.10
2017-09-30T03:19:25.697Z,26.67
2017-09-30T03:21:53.151Z,25.40
2017-09-30T03:24:20.624Z,27.70
2017-09-30T03:26:48.081Z,26.63
2017-09-30T03:29:15.528Z,25.07
2017-09-30T03:31:43.017Z,26.97
2017-09-30T03:34:10.493Z,27.07
2017-09-30T03:36:37.928Z,27.20
2017-09-30T03:39:05.408Z,27.53
2017-09-30T03:41:32.884Z,26.33
2017-09-30T03:44:01.091Z,27.60
2017-09-30T03:46:29.820Z,28.27
2017-09-30T03:48:57.260Z,28.43
2017-09-30T03:51:25.494Z,28.00
2017-09-30T03:53:53.717Z,26.93
2017-09-30T03:56:21.161Z,27.23
2017-09-30T03:58:48.624Z,29.43
2017-09-30T04:01:16.101Z,29.50
2017-09-30T04:03:43.560Z,27.53
2017-09-30T04:06:10.987Z,27.53
2017-09-30T04:08:38.469Z,27.97
2017-09-30T04:11:05.927Z,30.40
2017-09-30T04:13:33.380Z,27.90
2017-09-30T04:16:00.845Z,28.00
2017-09-30T04:18:28.285Z,29.77
2017-09-30T04:20:55.737Z,31.67
2017-09-30T04:23:23.225Z,27.37
2017-09-30T04:25:51.440Z,30.43
2017-09-30T04:28:18.881Z,29.20
2017-09-30T04:30:46.369Z,29.17
2017-09-30T04:33:13.804Z,30.50
2017-09-30T04:35:41.249Z,29.10
2017-09-30T04:38:09.489Z,28.60
2017-09-30T04:40:36.943Z,32.07
2017-09-30T04:43:04.383Z,30.90
2017-09-30T04:45:31.868Z,29.20
2017-09-30T04:47:59.311Z,27.10
2017-09-30T04:50:26.771Z,32.40
2017-09-30T04:52:54.251Z,29.33
2017-09-30T04:55:21.696Z,30.97
2017-09-30T04:57:49.143Z,30.30
2017-09-30T05:00:16.617Z,28.93
2017-09-30T05:02:44.886Z,29.00
2017-09-30T05:05:12.758Z,30.27
2017-09-30T05:07:40.246Z,26.53
2017-09-30T05:10:08.471Z,28.57
2017-09-30T05:12:35.933Z,28.17
2017-09-30T05:15:03.397Z,30.90
2017-09-30T05:17:30.862Z,29.50
2017-09-30T05:19:58.324Z,30.53
2017-09-30T05:22:25.809Z,27.63
2017-09-30T05:24:54.004Z,29.27
2017-09-30T05:27:21.457Z,30.33
2017-09-30T05:29:48.929Z,29.90
2017-09-30T05:32:16.371Z,28.20
2017-09-30T05:34:43.816Z,28.90
2017-09-30T05:37:11.323Z,30.90
2017-09-30T05:39:38.769Z,29.63
2017-09-30T05:42:12.130Z,28.53
2017-09-30T05:44:43.539Z,30.07
2017-09-30T05:47:15.123Z,30.03
2017-09-30T05:49:48.118Z,29.63
2017-09-30T05:52:17.057Z,30.93
2017-09-30T05:54:47.362Z,27.90
2017-09-30T05:57:20.746Z,30.33
2017-09-30T05:59:52.932Z,28.43
2017-09-30T06:02:21.931Z,29.27
2017-09-30T06:04:49.580Z,29.13
2017-09-30T06:07:17.240Z,28.50
2017-09-30T06:09:44.809Z,27.83
2017-09-30T06:12:12.471Z,28.20
2017-09-30T06:14:40.101Z,29.27
2017-09-30T06:17:07.801Z,29.40
2017-09-30T06:19:35.385Z,26.80
2017-09-30T06:22:03.018Z,26.10
2017-09-30T06:24:30.672Z,26.67
2017-09-30T06:26:58.365Z,28.73
2017-09-30T06:29:25.913Z,28.40
2017-09-30T06:31:53.425Z,26.60
2017-09-30T06:34:21.661Z,27.73
2017-09-30T06:36:49.184Z,25.90
2017-09-30T06:39:16.637Z,27.27
2017-09-30T06:41:44.205Z,27.53
2017-09-30T06:44:11.689Z,27.53
2017-09-30T06:46:39.900Z,29.87
2017-09-30T06:49:08.115Z,25.73
2017-09-30T06:51:35.589Z,27.80
2017-09-30T06:54:03.068Z,24.83
2017-09-30T06:56:30.524Z,25.47
2017-09-30T06:58:57.974Z,27.37
2017-09-30T07:01:25.443Z,28.90
2017-09-30T07:06:45.706Z,25.67
2017-09-30T07:09:13.916Z,25.60
2017-09-30T07:11:41.393Z,26.90
2017-09-30T07:14:08.841Z,24.20
2017-09-30T07:16:36.312Z,27.10
2017-09-30T07:19:03.789Z,26.07
2017-09-30T07:21:31.241Z,26.60
2017-09-30T07:23:58.726Z,25.00
2017-09-30T07:26:27.237Z,26.20
2017-09-30T07:28:54.695Z,25.77
2017-09-30T07:31:22.178Z,25.90
2017-09-30T07:33:49.646Z,33.00
2017-09-30T07:36:17.123Z,25.90
2017-09-30T07:38:44.610Z,22.67
2017-09-30T07:41:12.082Z,22.80
2017-09-30T07:43:39.525Z,26.40
2017-09-30T07:46:06.997Z,21.60
2017-09-30T07:48:34.446Z,23.80
2017-09-30T07:51:01.888Z,22.30
2017-09-30T07:53:30.125Z,25.20
2017-09-30T07:55:57.577Z,25.40
2017-09-30T07:58:25.045Z,21.67
2017-09-30T08:00:52.515Z,21.33
2017-09-30T08:03:19.981Z,21.47
2017-09-30T08:05:47.442Z,22.43
2017-09-30T08:08:14.909Z,23.80
2017-09-30T08:10:43.152Z,20.60
2017-09-30T08:13:10.609Z,22.50
2017-09-30T08:15:38.052Z,23.00
2017-09-30T08:18:05.794Z,21.37
2017-09-30T08:20:33.561Z,18.70
2017-09-30T08:23:01.042Z,20.77
2017-09-30T08:25:28.481Z,19.93
2017-09-30T08:27:56.241Z,21.20
2017-09-30T08:30:24.020Z,19.70
2017-09-30T08:32:51.464Z,19.80
2017-09-30T08:35:18.948Z,18.07
2017-09-30T08:37:46.685Z,19.73
2017-09-30T08:40:14.138Z,17.60
2017-09-30T08:42:41.609Z,18.20
2017-09-30T08:45:09.049Z,20.37
2017-09-30T08:47:36.524Z,20.67
2017-09-30T08:50:03.972Z,17.17
2017-09-30T08:52:31.412Z,19.57
2017-09-30T08:54:58.897Z,19.13
2017-09-30T08:57:26.352Z,19.00
2017-09-30T08:59:54.109Z,19.50
2017-09-30T09:02:21.872Z,18.80
2017-09-30T09:04:49.318Z,18.80
2017-09-30T09:07:16.760Z,18.20
2017-09-30T09:09:45.009Z,17.13
2017-09-30T09:12:12.452Z,18.50
2017-09-30T09:14:39.904Z,17.77
2017-09-30T09:17:07.642Z,16.60
2017-09-30T09:19:35.101Z,15.40
2017-09-30T09:22:02.549Z,15.27
2017-09-30T09:24:30.022Z,17.27
2017-09-30T09:26:57.493Z,15.87
2017-09-30T09:29:24.956Z,16.00
2017-09-30T09:31:52.442Z,13.27
2017-09-30T09:34:19.933Z,15.73
2017-09-30T09:36:47.721Z,15.50
2017-09-30T09:39:15.476Z,15.97
2017-09-30T09:41:42.953Z,14.93
2017-09-30T09:44:11.412Z,15.13
2017-09-30T09:46:38.880Z,14.53
2017-09-30T09:49:06.636Z,15.33
2017-09-30T09:51:34.083Z,14.83
2017-09-30T09:54:01.585Z,18.03
2017-09-30T09:56:29.029Z,15.60
2017-09-30T09:58:56.772Z,22.00
2017-09-30T10:01:24.227Z,17.30
2017-09-30T10:03:51.698Z,16.13
2017-09-30T10:06:19.173Z,16.23
2017-09-30T10:08:46.616Z,16.70
2017-09-30T10:11:14.111Z,14.53
2017-09-30T10:13:41.554Z,15.03
2017-09-30T10:16:09.029Z,16.10
2017-09-30T10:18:36.477Z,15.77
2017-09-30T10:21:03.953Z,14.63
2017-09-30T10:23:32.191Z,14.00
2017-09-30T10:25:59.937Z,13.63
2017-09-30T10:28:27.409Z,14.53
2017-09-30T10:30:54.856Z,13.97
2017-09-30T10:33:22.330Z,13.90
2017-09-30T10:35:49.781Z,26.93
2017-09-30T10:38:17.261Z,16.77
2017-09-30T10:40:44.733Z,15.07
2017-09-30T10:43:12.197Z,13.50
2017-09-30T10:45:40.432Z,14.27
2017-09-30T10:48:07.893Z,14.07
2017-09-30T10:50:35.641Z,14.30
2017-09-30T10:53:03.105Z,13.83
2017-09-30T10:55:30.860Z,13.93
2017-09-30T10:57:58.340Z,14.00
2017-09-30T11:00:25.810Z,12.97
2017-09-30T11:02:53.266Z,13.83
2017-09-30T11:05:20.733Z,13.87
2017-09-30T11:07:48.190Z,13.40
2017-09-30T11:10:16.013Z,15.33
2017-09-30T11:12:43.685Z,14.40
2017-09-30T11:15:11.140Z,12.40
2017-09-30T11:17:38.898Z,11.80
2017-09-30T11:20:06.357Z,12.93
2017-09-30T11:22:33.854Z,13.40
2017-09-30T11:25:01.297Z,12.40
2017-09-30T11:27:28.740Z,12.27
2017-09-30T11:29:56.207Z,12.77
2017-09-30T11:32:23.653Z,11.83
2017-09-30T11:34:51.125Z,14.83
2017-09-30T11:37:18.585Z,12.33
2017-09-30T11:39:46.061Z,12.60
2017-09-30T11:42:13.780Z,12.63
2017-09-30T11:44:41.238Z,12.10
2017-09-30T11:47:09.006Z,12.70
2017-09-30T11:49:36.456Z,11.10
2017-09-30T11:52:04.226Z,12.40
2017-09-30T11:54:31.693Z,11.13
2017-09-30T11:56:59.444Z,13.50
2017-09-30T11:59:26.933Z,14.23
2017-09-30T12:01:54.387Z,12.67
2017-09-30T12:04:22.126Z,12.50
2017-09-30T12:06:49.603Z,12.40
2017-09-30T12:09:17.052Z,11.93
2017-09-30T12:11:44.807Z,12.03
2017-09-30T12:14:12.573Z,12.20
2017-09-30T12:16:40.037Z,10.33
2017-09-30T12:19:07.487Z,11.77
2017-09-30T12:21:34.957Z,11.03
2017-09-30T12:24:02.428Z,13.70
2017-09-30T12:26:30.167Z,13.57
2017-09-30T12:28:57.641Z,12.20
2017-09-30T12:31:25.389Z,12.80
2017-09-30T12:33:52.837Z,11.10
2017-09-30T12:36:20.280Z,11.03
2017-09-30T12:38:47.766Z,11.60
2017-09-30T12:41:15.212Z,10.53
2017-09-30T12:43:42.677Z,10.53
2017-09-30T12:46:10.152Z,11.60
2017-09-30T12:48:37.599Z,9.90
2017-09-30T12:51:05.069Z,11.40
2017-09-30T12:53:32.812Z,10.60
2017-09-30T12:56:00.577Z,12.30
2017-09-30T12:58:28.340Z,11.77
2017-09-30T13:00:55.798Z,10.73
2017-09-30T13:03:23.290Z,9.93
2017-09-30T13:05:50.741Z,10.67
2017-09-30T13:08:18.197Z,12.20
2017-09-30T13:10:45.676Z,12.03
2017-09-30T13:13:13.158Z,14.30
2017-09-30T13:15:41.401Z,10.63
2017-09-30T13:18:08.853Z,11.43
2017-09-30T13:20:36.308Z,16.90
2017-09-30T13:23:04.045Z,11.00
2017-09-30T13:25:31.497Z,14.47
2017-09-30T13:27:59.266Z,12.93
2017-09-30T13:30:26.708Z,9.63
2017-09-30T13:32:54.167Z,9.60
2017-09-30T13:35:21.646Z,8.70
2017-09-30T13:37:49.410Z,9.33
2017-09-30T13:40:16.848Z,10.43
2017-09-30T13:42:44.312Z,10.53
2017-09-30T13:45:11.772Z,9.07
2017-09-30T13:47:39.255Z,9.60
2017-09-30T13:50:06.712Z,10.23
2017-09-30T13:52:34.150Z,9.70
2017-09-30T13:55:01.621Z,9.70
2017-09-30T13:57:29.061Z,9.27
2017-09-30T13:59:56.524Z,8.90
2017-09-30T14:02:23.968Z,9.33
2017-09-30T14:04:51.454Z,9.10
2017-09-30T14:07:18.906Z,10.67
2017-09-30T14:09:46.382Z,9.50
2017-09-30T14:12:13.848Z,9.13
2017-09-30T14:14:42.088Z,8.10
2017-09-30T14:17:09.747Z,8.63
2017-09-30T14:19:37.205Z,8.37
2017-09-30T14:22:04.676Z,10.37
2017-09-30T14:24:32.122Z,8.23
2017-09-30T14:26:59.565Z,8.10
2017-09-30T14:29:27.340Z,9.70
2017-09-30T14:31:54.785Z,8.43
2017-09-30T14:34:22.561Z,9.60
2017-09-30T14:36:50.024Z,9.70
2017-09-30T14:39:17.477Z,9.70
2017-09-30T14:41:44.954Z,8.90
2017-09-30T14:44:12.410Z,9.30
2017-09-30T14:46:40.156Z,8.10
2017-09-30T14:49:07.631Z,8.20
2017-09-30T14:51:35.381Z,8.50
2017-09-30T14:54:02.853Z,7.63
2017-09-30T14:56:30.322Z,7.50
2017-09-30T14:58:58.060Z,9.50
2017-09-30T15:01:25.508Z,9.37
2017-09-30T15:03:53.185Z,7.97
2017-09-30T15:06:20.740Z,10.00
2017-09-30T15:08:48.177Z,8.13
2017-09-30T15:11:15.630Z,9.03
2017-09-30T15:13:44.137Z,9.53
2017-09-30T15:16:11.590Z,9.47
2017-09-30T15:18:39.058Z,10.60
2017-09-30T15:21:06.522Z,9.20
2017-09-30T15:23:33.989Z,7.23
2017-09-30T15:26:01.440Z,9.20
2017-09-30T15:28:28.900Z,9.40
2017-09-30T15:30:56.364Z,8.53
2017-09-30T15:33:24.105Z,9.33
2017-09-30T15:35:51.867Z,8.87
2017-09-30T15:38:19.344Z,9.50
2017-09-30T15:40:46.797Z,9.10
2017-09-30T15:43:14.249Z,11.60
2017-09-30T15:45:41.725Z,10.60
2017-09-30T15:48:09.196Z,9.93
2017-09-30T15:50:36.654Z,8.00
2017-09-30T15:53:04.112Z,10.57
2017-09-30T15:55:31.837Z,8.87
2017-09-30T15:57:59.300Z,11.03
2017-09-30T16:00:27.061Z,9.37
2017-09-30T16:02:54.824Z,10.63
2017-09-30T16:05:22.284Z,10.83
2017-09-30T16:07:49.732Z,10.10
2017-09-30T16:10:17.506Z,12.20
2017-09-30T16:12:44.975Z,13.27
2017-09-30T16:15:12.446Z,13.93
2017-09-30T16:17:39.921Z,12.97
2017-09-30T16:20:07.377Z,13.37
2017-09-30T16:22:35.100Z,12.83
2017-09-30T16:25:02.548Z,16.80
2017-09-30T16:27:30.042Z,15.63
2017-09-30T16:29:57.497Z,15.13
2017-09-30T16:32:24.944Z,14.50
2017-09-30T16:34:52.418Z,13.70
2017-09-30T16:37:20.152Z,21.50
2017-09-30T16:39:47.596Z,15.67
2017-09-30T16:42:15.070Z,14.93
2017-09-30T16:44:42.529Z,13.53
2017-09-30T16:47:10.002Z,13.70
2017-09-30T16:49:37.453Z,15.53
2017-09-30T16:52:05.208Z,14.90
2017-09-30T16:54:32.668Z,14.97
2017-09-30T16:57:00.169Z,14.00
2017-09-30T16:59:27.624Z,15.00
2017-09-30T17:01:55.078Z,17.70
2017-09-30T17:04:22.544Z,18.23
2017-09-30T17:06:50.256Z,14.33
2017-09-30T17:09:17.739Z,15.30
2017-09-30T17:11:45.208Z,14.17
2017-09-30T17:14:12.665Z,14.30
2017-09-30T17:16:40.113Z,14.87
2017-09-30T17:19:07.848Z,14.63
2017-09-30T17:21:35.301Z,16.00
2017-09-30T17:24:02.968Z,14.33
2017-09-30T17:26:30.441Z,14.10
2017-09-30T17:28:57.887Z,13.37
2017-09-30T17:31:25.376Z,15.10
2017-09-30T17:33:52.829Z,13.83
2017-09-30T17:36:20.290Z,13.90
2017-09-30T17:38:48.025Z,14.83
2017-09-30T17:41:15.788Z,14.90
2017-09-30T17:43:43.553Z,13.67
2017-09-30T17:46:11.016Z,12.93
2017-09-30T17:48:38.493Z,13.00
2017-09-30T17:51:06.232Z,14.97
2017-09-30T17:53:33.696Z,16.13
2017-09-30T17:56:01.146Z,14.57
2017-09-30T17:58:28.626Z,13.20
2017-09-30T18:00:56.288Z,13.73
2017-09-30T18:03:23.738Z,13.73
2017-09-30T18:05:51.488Z,12.83
2017-09-30T18:08:18.944Z,15.00
2017-09-30T18:10:46.416Z,14.40
2017-09-30T18:13:14.168Z,14.60
2017-09-30T18:15:41.649Z,13.23
2017-09-30T18:18:09.390Z,13.97
2017-09-30T18:20:36.855Z,13.20
2017-09-30T18:23:04.326Z,13.00
2017-09-30T18:25:31.780Z,14.27
2017-09-30T18:28:00.050Z,14.30
2017-09-30T18:30:27.493Z,16.93
2017-09-30T18:32:54.976Z,14.57
2017-09-30T18:35:22.722Z,12.27
2017-09-30T18:37:50.184Z,12.37
2017-09-30T18:40:17.645Z,14.40
2017-09-30T18:42:45.093Z,12.90
2017-09-30T18:45:12.578Z,13.30
2017-09-30T18:47:40.030Z,14.50
2017-09-30T18:50:07.775Z,15.50
2017-09-30T18:52:35.254Z,15.00
2017-09-30T18:55:02.710Z,16.50
2017-09-30T18:57:30.153Z,13.90
2017-09-30T18:59:57.630Z,13.93
2017-09-30T19:02:25.084Z,13.63
2017-09-30T19:04:52.558Z,12.60
2017-09-30T19:07:20.285Z,12.37
2017-09-30T19:09:47.774Z,14.20
2017-09-30T19:12:15.233Z,12.50
2017-09-30T19:14:42.688Z,12.80
2017-09-30T19:17:10.425Z,12.17
2017-09-30T19:19:37.878Z,12.93
2017-09-30T19:22:05.343Z,11.43
2017-09-30T19:24:32.786Z,12.60
2017-09-30T19:27:00.264Z,14.00
2017-09-30T19:29:27.713Z,11.40
2017-09-30T19:31:55.165Z,12.90
2017-09-30T19:34:22.649Z,12.93
2017-09-30T19:36:50.397Z,11.17
2017-09-30T19:39:17.838Z,11.87
2017-09-30T19:41:45.611Z,12.73
2017-09-30T19:44:13.056Z,12.80
2017-09-30T19:46:40.745Z,12.87
2017-09-30T19:49:08.217Z,13.83
2017-09-30T19:51:35.954Z,12.37
2017-09-30T19:54:03.424Z,28.10
2017-09-30T19:56:30.882Z,12.00
2017-09-30T19:58:58.372Z,13.33
2017-09-30T20:01:26.089Z,16.10
2017-09-30T20:03:53.543Z,12.17
2017-09-30T20:06:21.313Z,13.20
2017-09-30T20:08:48.976Z,12.87
2017-09-30T20:11:16.740Z,13.43
2017-09-30T20:13:44.500Z,12.37
2017-09-30T20:16:11.962Z,12.60
2017-09-30T20:18:39.416Z,12.07
2017-09-30T20:21:06.865Z,12.67
2017-09-30T20:23:34.337Z,12.20
2017-09-30T20:26:01.794Z,11.70
2017-09-30T20:28:29.270Z,11.97
2017-09-30T20:30:56.717Z,13.50
2017-09-30T20:33:24.189Z,11.93
2017-09-30T20:35:51.928Z,16.23
2017-09-30T20:38:19.406Z,12.40
2017-09-30T20:40:47.150Z,13.03
2017-09-30T20:43:14.620Z,12.60
2017-09-30T20:45:42.073Z,11.70
2017-09-30T20:48:09.542Z,11.70
2017-09-30T20:50:37.760Z,12.93
2017-09-30T20:53:06.017Z,12.67
2017-09-30T20:55:33.468Z,12.77
2017-09-30T20:58:00.925Z,13.00
2017-09-30T21:00:28.400Z,13.20
2017-09-30T21:02:55.848Z,11.70
2017-09-30T21:05:23.292Z,12.27
2017-09-30T21:07:51.525Z,14.30
2017-09-30T21:10:18.998Z,21.10
2017-09-30T21:12:46.766Z,13.70
2017-09-30T21:15:14.275Z,13.63
2017-09-30T21:17:41.986Z,17.63
2017-09-30T21:20:09.481Z,18.73
2017-09-30T21:22:37.203Z,13.13
2017-09-30T21:25:04.652Z,14.17
2017-09-30T21:27:32.100Z,15.20
2017-09-30T21:29:59.568Z,14.03
2017-09-30T21:32:27.018Z,12.80
2017-09-30T21:34:54.485Z,11.80
2017-09-30T21:37:21.939Z,13.03
2017-09-30T21:39:49.409Z,13.67
2017-09-30T21:42:16.877Z,12.60
2017-09-30T21:44:44.349Z,11.90
2017-09-30T21:47:11.796Z,15.93
2017-09-30T21:49:39.253Z,14.40
2017-09-30T21:52:06.720Z,12.77
2017-09-30T21:54:34.457Z,12.60
2017-09-30T21:57:02.231Z,12.90
2017-09-30T21:59:29.677Z,13.00
2017-09-30T22:01:57.128Z,12.70
2017-09-30T22:04:24.601Z,12.87
2017-09-30T22:06:52.056Z,16.67
2017-09-30T22:09:19.548Z,12.47
2017-09-30T22:11:46.985Z,15.40
2017-09-30T22:14:14.466Z,12.00
2017-09-30T22:16:41.925Z,12.40
2017-09-30T22:19:09.650Z,11.93
2017-09-30T22:21:37.141Z,13.37
2017-09-30T22:24:04.645Z,13.87
2017-09-30T22:26:32.110Z,14.23
2017-09-30T22:28:59.885Z,13.73
2017-09-30T22:31:27.652Z,14.20
2017-09-30T22:33:55.097Z,13.50
2017-09-30T22:36:22.572Z,14.10
2017-09-30T22:38:50.016Z,13.60
2017-09-30T22:41:17.469Z,13.30
2017-09-30T22:43:45.249Z,12.20
2017-09-30T22:46:12.705Z,14.27
2017-09-30T22:48:40.186Z,12.97
2017-09-30T22:51:07.645Z,12.80
2017-09-30T22:53:35.130Z,13.30
2017-09-30T22:56:02.841Z,14.80
2017-09-30T22:58:30.288Z,13.37
2017-09-30T23:00:57.757Z,13.40
2017-09-30T23:03:25.524Z,13.50
2017-09-30T23:05:53.004Z,15.13
2017-09-30T23:08:20.745Z,13.27
2017-09-30T23:10:48.509Z,14.77
2017-09-30T23:13:16.190Z,15.27
2017-09-30T23:15:43.648Z,12.93
2017-09-30T23:18:11.131Z,15.67
2017-09-30T23:20:38.581Z,13.63
2017-09-30T23:23:06.309Z,15.03
2017-09-30T23:25:33.788Z,12.50
2017-09-30T23:28:01.244Z,13.07
2017-09-30T23:30:28.728Z,14.67
2017-09-30T23:32:56.448Z,13.20
2017-09-30T23:35:23.892Z,14.60
2017-09-30T23:37:51.378Z,14.43
2017-09-30T23:40:18.835Z,13.97
2017-09-30T23:42:46.580Z,14.40
2017-09-30T23:45:14.064Z,12.57
2017-09-30T23:47:41.516Z,14.83
2017-09-30T23:50:08.965Z,13.80
2017-09-30T23:52:36.445Z,14.37
2017-09-30T23:55:03.902Z,15.47
2017-09-30T23:57:31.353Z,15.67
2017-09-30T23:59:58.824Z,15.63
